Wolbach, Nebraska
Current Conditions -  °F | °C
As of 4:15 PM on Sunday 21 Dec 2014 (Local Time) from KBVN Reporting Station
Haze Haze  
Wind Chill: 33°   Ceiling: 400
Heat Index: 39°   Visibility: 2mi
Dew Point: 37°   Wind: 8mph
Humidity: 92%   Direction: 170°S
Pressure: 29.61"   Gusts: NA
Location:  41.4°N, 98.39°W
Report Text: KBVN 212215Z AUTO 17007KT 2SM BR OVC004 04/03 A2961 RMK AO2 T00370025
Loading
Personal Weather Stations






























Interactive Weather Map New forecast layout! Learn more

10-Day Weather Forecast

Advertisements
Track Severe Weather on mobile